Time;durP1;ratioP1;P1;durP2;ratioP2;P2;SDS_P1;SDS_P2;PMS_P1;PMS_P2;Temp;Humidity;BMP_temperature;BMP_pressure;BME280_temperature;BME280_humidity;BME280_pressure;Samples;Min_cycle;Max_cycle;Signal;HPM_P1;HPM_P2
2023/02/13 00:01:38;;;;;;;25.92;15.48;;;9.30;99.90;;;;;;5077598;28;20218;-85
2023/02/13 00:04:05;;;;;;;27.35;17.38;;;9.20;99.90;;;;;;5078780;28;20266;-86
2023/02/13 00:06:32;;;;;;;29.38;17.13;;;9.10;99.90;;;;;;5076923;28;20279;-84
2023/02/13 00:08:59;;;;;;;25.48;16.27;;;9.00;99.90;;;;;;5080732;28;20239;-86
2023/02/13 00:11:26;;;;;;;31.45;17.00;;;9.00;99.90;;;;;;5073324;28;20216;-85
2023/02/13 00:13:53;;;;;;;27.98;15.77;;;9.00;99.90;;;;;;5085191;28;20282;-85
2023/02/13 00:16:19;;;;;;;24.58;16.85;;;9.00;99.90;;;;;;5095098;28;20291;-85
2023/02/13 00:18:48;;;;;;;26.63;16.35;;;9.10;99.90;;;;;;5096632;28;20203;-87
2023/02/13 00:21:15;;;;;;;26.15;16.58;;;9.10;99.90;;;;;;5096394;28;20214;-86
2023/02/13 00:23:41;;;;;;;23.58;15.30;;;9.00;99.90;;;;;;5090249;28;20267;-87
2023/02/13 00:26:10;;;;;;;23.05;14.50;;;9.00;99.90;;;;;;5085735;28;20253;-87
2023/02/13 00:28:37;;;;;;;25.58;16.80;;;9.10;99.90;;;;;;5088760;28;20235;-86
2023/02/13 00:31:06;;;;;;;25.58;15.95;;;9.10;99.90;;;;;;5078368;28;20267;-85
2023/02/13 00:33:33;;;;;;;24.95;16.27;;;9.20;99.90;;;;;;5069022;28;20223;-84
2023/02/13 00:36:08;;;;;;;27.67;16.17;;;9.30;99.90;;;;;;5080955;28;20300;-84
2023/02/13 00:38:35;;;;;;;22.25;14.95;;;9.30;99.90;;;;;;5073825;28;20237;-85
2023/02/13 00:41:02;;;;;;;26.38;14.68;;;9.20;99.90;;;;;;5074568;28;20587;-84
2023/02/13 00:43:30;;;;;;;22.13;14.95;;;9.30;99.90;;;;;;5070654;28;20231;-85
2023/02/13 00:45:57;;;;;;;29.15;18.17;;;9.30;99.90;;;;;;5074777;28;20312;-85
2023/02/13 00:48:24;;;;;;;27.05;17.75;;;9.30;99.90;;;;;;5079252;28;20253;-84
2023/02/13 00:50:51;;;;;;;23.98;14.40;;;9.20;99.90;;;;;;5068670;28;20235;-84
2023/02/13 00:53:20;;;;;;;25.13;16.30;;;9.20;99.90;;;;;;5068179;28;20203;-85
2023/02/13 00:55:47;;;;;;;26.67;16.13;;;9.10;99.90;;;;;;5077903;28;20223;-85
2023/02/13 00:58:14;;;;;;;33.83;16.92;;;9.00;99.90;;;;;;5076825;28;20206;-85
2023/02/13 01:00:41;;;;;;;25.08;15.50;;;9.10;99.90;;;;;;5080265;28;20215;-86
2023/02/13 01:03:08;;;;;;;24.52;15.23;;;9.10;99.90;;;;;;5073758;28;20214;-85
2023/02/13 01:05:35;;;;;;;25.42;16.95;;;9.10;99.90;;;;;;5076921;28;20310;-85
2023/02/13 01:08:02;;;;;;;26.45;16.70;;;9.10;99.90;;;;;;5079779;28;20713;-85
2023/02/13 01:10:30;;;;;;;26.00;16.80;;;9.00;99.90;;;;;;5069787;28;20235;-86
2023/02/13 01:12:57;;;;;;;27.30;16.80;;;9.00;99.90;;;;;;5073780;28;20552;-85
2023/02/13 01:15:24;;;;;;;32.22;18.88;;;9.00;99.90;;;;;;5071563;28;20222;-85
2023/02/13 01:17:56;;;;;;;32.40;17.95;;;9.00;99.90;;;;;;5080631;28;20235;-85
2023/02/13 01:20:24;;;;;;;31.77;19.42;;;9.00;99.90;;;;;;5086116;28;20227;-85
2023/02/13 01:22:51;;;;;;;43.75;22.17;;;8.90;99.90;;;;;;5077929;28;20219;-84
2023/02/13 01:25:18;;;;;;;34.50;20.10;;;8.90;99.90;;;;;;5086324;28;20245;-86
2023/02/13 01:27:46;;;;;;;40.30;19.88;;;8.90;99.90;;;;;;5088787;28;20268;-85
2023/02/13 01:30:17;;;;;;;34.05;19.35;;;8.90;99.90;;;;;;5091055;28;20291;-85
2023/02/13 01:32:46;;;;;;;33.28;19.60;;;8.80;99.90;;;;;;5088883;28;20207;-87
2023/02/13 01:35:14;;;;;;;43.47;20.63;;;8.80;99.90;;;;;;5090678;28;20202;-84
2023/02/13 01:37:42;;;;;;;38.60;20.15;;;8.70;99.90;;;;;;5087825;28;20206;-86
2023/02/13 01:40:13;;;;;;;38.63;22.00;;;8.70;99.90;;;;;;5093850;28;20225;-85
2023/02/13 01:42:40;;;;;;;35.38;21.20;;;8.60;99.90;;;;;;5092759;28;20455;-85
2023/02/13 01:45:22;;;;;;;30.42;18.13;;;8.70;99.90;;;;;;5084429;28;20213;-85
2023/02/13 01:47:52;;;;;;;43.20;20.40;;;8.70;99.90;;;;;;5080507;28;20198;-85
2023/02/13 01:50:24;;;;;;;40.60;21.88;;;8.70;99.90;;;;;;5087116;28;20172;-86
2023/02/13 01:52:55;;;;;;;34.58;20.00;;;8.70;99.90;;;;;;5097039;28;20210;-85
2023/02/13 01:55:23;;;;;;;39.63;20.95;;;8.80;99.90;;;;;;5097299;28;20226;-85
2023/02/13 01:57:57;;;;;;;32.58;18.30;;;8.70;99.90;;;;;;5092370;28;20270;-84
2023/02/13 02:00:25;;;;;;;38.20;20.73;;;8.70;99.90;;;;;;5091369;28;20229;-85
2023/02/13 02:02:57;;;;;;;37.25;19.77;;;8.60;99.90;;;;;;5092770;28;20219;-85
2023/02/13 02:05:28;;;;;;;36.35;18.95;;;8.70;99.90;;;;;;5082390;28;20279;-85
2023/02/13 02:07:58;;;;;;;36.83;19.98;;;8.70;99.90;;;;;;5092392;28;20275;-84
2023/02/13 02:10:25;;;;;;;36.15;21.13;;;8.60;99.90;;;;;;5090932;28;20218;-86
2023/02/13 02:13:01;;;;;;;35.67;19.63;;;8.80;99.90;;;;;;5091884;28;20223;-85
2023/02/13 02:15:30;;;;;;;39.35;22.55;;;8.60;99.90;;;;;;5089927;28;20226;-84
2023/02/13 02:17:57;;;;;;;46.70;26.05;;;8.60;99.90;;;;;;5092037;28;20263;-84
2023/02/13 02:20:44;;;;;;;46.90;24.98;;;8.60;99.90;;;;;;5090817;28;20221;-85
2023/02/13 02:23:34;;;;;;;51.22;26.63;;;8.60;99.90;;;;;;5090814;28;20275;-85
2023/02/13 02:26:22;;;;;;;56.30;27.73;;;8.60;99.90;;;;;;5079491;28;20298;-84
2023/02/13 02:29:16;;;;;;;47.58;25.42;;;8.60;99.90;;;;;;5091809;28;20200;-84
2023/02/13 02:32:03;;;;;;;57.58;26.95;;;8.70;99.90;;;;;;5079678;28;20241;-85
2023/02/13 02:34:38;;;;;;;45.40;26.40;;;8.80;99.90;;;;;;5088902;28;20223;-84
2023/02/13 02:37:16;;;;;;;44.95;26.58;;;8.80;99.90;;;;;;5079473;28;20309;-84
2023/02/13 02:39:50;;;;;;;45.05;26.25;;;8.80;99.90;;;;;;5091572;28;20183;-85
2023/02/13 02:42:28;;;;;;;56.22;28.85;;;8.90;99.90;;;;;;5091413;28;20206;-84
2023/02/13 02:45:05;;;;;;;52.15;26.25;;;8.90;99.90;;;;;;5092694;28;20229;-85
2023/02/13 02:50:32;;;;;;;54.90;28.10;;;8.90;99.90;;;;;;5077749;28;20228;-85
2023/02/13 02:53:13;;;;;;;55.47;26.92;;;8.80;99.90;;;;;;5079196;28;20655;-85
2023/02/13 02:55:45;;;;;;;46.08;26.23;;;8.80;99.90;;;;;;5081546;28;20250;-85
2023/02/13 03:06:40;;;;;;;59.30;29.02;;;8.70;99.90;;;;;;5083957;28;20256;-86
2023/02/13 03:14:48;;;;;;;50.08;26.25;;;8.70;99.90;;;;;;5093780;28;20210;-86
2023/02/13 03:23:25;;;;;;;56.75;26.67;;;8.60;99.90;;;;;;5083416;28;20203;-86
2023/02/13 03:26:06;;;;;;;42.85;24.00;;;8.80;99.90;;;;;;5085024;28;20226;-85
2023/02/13 03:31:32;;;;;;;42.40;23.50;;;8.80;99.90;;;;;;5080147;28;20191;-83
2023/02/13 03:34:04;;;;;;;53.20;26.17;;;8.80;99.90;;;;;;5087483;28;20183;-85
2023/02/13 03:39:40;;;;;;;52.05;27.75;;;8.80;99.90;;;;;;5095432;28;20194;-86
2023/02/13 03:42:11;;;;;;;50.63;25.75;;;8.70;99.90;;;;;;5087893;28;20219;-84
2023/02/13 03:44:43;;;;;;;49.10;24.75;;;8.70;99.90;;;;;;5089493;28;20239;-85
2023/02/13 03:47:11;;;;;;;53.42;27.38;;;8.70;99.90;;;;;;5096253;28;20203;-83
2023/02/13 03:52:32;;;;;;;56.67;28.10;;;8.50;99.90;;;;;;5076745;28;20214;-85
2023/02/13 04:00:39;;;;;;;59.95;28.20;;;8.60;99.90;;;;;;5073556;28;20296;-85
2023/02/13 04:03:13;;;;;;;67.00;31.98;;;8.60;99.90;;;;;;5070925;28;20226;-84
2023/02/13 04:05:44;;;;;;;58.15;29.02;;;8.60;99.90;;;;;;5073624;28;20223;-84
2023/02/13 04:08:12;;;;;;;63.22;32.88;;;8.60;99.90;;;;;;5080923;28;20231;-84
2023/02/13 04:10:49;;;;;;;62.55;29.65;;;8.60;99.90;;;;;;5079362;28;20569;-85
2023/02/13 04:13:20;;;;;;;63.75;29.42;;;8.60;99.90;;;;;;5081415;28;20285;-84
2023/02/13 04:15:52;;;;;;;58.28;28.83;;;8.50;99.90;;;;;;5090541;28;20237;-85
2023/02/13 04:18:22;;;;;;;59.97;32.25;;;8.50;99.90;;;;;;5094352;28;20252;-85
2023/02/13 04:20:49;;;;;;;56.70;30.00;;;8.50;99.90;;;;;;5097909;28;20203;-85
2023/02/13 04:23:18;;;;;;;65.18;31.75;;;8.60;99.90;;;;;;5085346;28;20282;-84
2023/02/13 04:25:48;;;;;;;57.67;28.30;;;8.70;99.90;;;;;;5086341;28;20270;-85
2023/02/13 04:28:15;;;;;;;62.45;31.42;;;8.70;99.90;;;;;;5087811;28;20227;-85
2023/02/13 04:30:42;;;;;;;49.50;26.80;;;8.70;99.90;;;;;;5091487;28;20224;-86
2023/02/13 04:33:09;;;;;;;51.67;26.27;;;8.60;99.90;;;;;;5094494;28;20214;-86
2023/02/13 04:35:36;;;;;;;67.35;28.88;;;8.70;99.90;;;;;;5085942;28;20214;-86
2023/02/13 04:38:03;;;;;;;60.70;29.33;;;8.70;99.90;;;;;;5090762;28;20219;-85
2023/02/13 04:40:31;;;;;;;62.13;29.15;;;8.60;99.90;;;;;;5092779;28;20214;-85
2023/02/13 04:42:58;;;;;;;66.60;31.40;;;8.60;99.90;;;;;;5089595;28;20231;-85
2023/02/13 04:45:25;;;;;;;67.93;29.70;;;8.50;99.90;;;;;;5085325;28;20223;-84
2023/02/13 04:47:53;;;;;;;56.28;29.35;;;8.40;99.90;;;;;;5081018;28;20266;-84
2023/02/13 04:50:20;;;;;;;48.47;25.95;;;8.60;99.90;;;;;;5085983;28;20223;-84
2023/02/13 04:52:47;;;;;;;65.45;30.75;;;8.50;99.90;;;;;;5074268;28;20207;-85
2023/02/13 04:55:14;;;;;;;53.10;27.27;;;8.60;99.90;;;;;;5077941;28;20272;-86
2023/02/13 04:57:42;;;;;;;52.72;25.65;;;8.70;99.90;;;;;;5071626;28;20199;-85
2023/02/13 05:00:10;;;;;;;49.80;27.38;;;8.60;99.90;;;;;;5071556;28;20286;-85
2023/02/13 05:02:37;;;;;;;65.60;29.92;;;8.60;99.90;;;;;;5077531;28;20209;-85
2023/02/13 05:05:04;;;;;;;77.18;33.83;;;8.60;99.90;;;;;;5076883;28;20288;-85
2023/02/13 05:07:31;;;;;;;53.92;27.88;;;8.60;99.90;;;;;;5077053;28;20316;-86
2023/02/13 05:09:58;;;;;;;68.60;31.88;;;8.60;99.90;;;;;;5083831;28;20286;-85
2023/02/13 05:12:25;;;;;;;55.83;28.35;;;8.60;99.90;;;;;;5080057;28;20195;-85
2023/02/13 05:14:53;;;;;;;58.92;29.45;;;8.60;99.90;;;;;;5095496;28;20259;-86
2023/02/13 05:17:20;;;;;;;70.15;31.60;;;8.60;99.90;;;;;;5101018;28;20236;-85
2023/02/13 05:19:47;;;;;;;65.32;32.97;;;8.60;99.90;;;;;;5084389;28;20203;-85
2023/02/13 05:24:58;;;;;;;57.97;29.88;;;8.60;99.90;;;;;;5083496;28;20256;-86
2023/02/13 05:27:25;;;;;;;67.65;31.08;;;8.50;99.90;;;;;;5073693;28;20237;-86
2023/02/13 05:29:52;;;;;;;63.53;30.20;;;8.50;99.90;;;;;;5069406;28;20213;-83
2023/02/13 05:32:19;;;;;;;65.00;31.02;;;8.40;99.90;;;;;;5080503;28;20202;-84
2023/02/13 05:34:46;;;;;;;65.30;30.83;;;8.40;99.90;;;;;;5073016;28;20191;-84
2023/02/13 05:37:12;;;;;;;53.05;30.08;;;8.40;99.90;;;;;;5075176;28;20215;-85
2023/02/13 05:39:39;;;;;;;69.95;32.95;;;8.50;99.90;;;;;;5077530;28;20290;-84
2023/02/13 05:42:06;;;;;;;68.13;31.23;;;8.50;99.90;;;;;;5088512;28;20286;-84
2023/02/13 05:44:33;;;;;;;68.47;31.15;;;8.40;99.90;;;;;;5082657;28;20283;-83
2023/02/13 05:47:01;;;;;;;67.78;30.85;;;8.40;99.90;;;;;;5082692;28;20282;-84
2023/02/13 05:49:28;;;;;;;65.15;32.53;;;8.40;99.90;;;;;;5085321;28;20206;-84
2023/02/13 05:51:55;;;;;;;55.65;28.10;;;8.50;99.90;;;;;;5083354;28;20267;-84
2023/02/13 05:54:22;;;;;;;69.60;30.90;;;8.50;99.90;;;;;;5087635;28;20233;-85
2023/02/13 05:56:48;;;;;;;68.93;34.88;;;8.50;99.90;;;;;;5086018;28;20230;-84
2023/02/13 05:59:15;;;;;;;80.63;34.40;;;8.50;99.90;;;;;;5078089;28;20246;-84
2023/02/13 06:01:42;;;;;;;73.00;33.75;;;8.50;99.90;;;;;;5091565;28;20661;-84
2023/02/13 06:04:10;;;;;;;66.88;31.85;;;8.50;99.90;;;;;;5088889;28;20262;-85
2023/02/13 06:06:37;;;;;;;70.15;32.30;;;8.50;99.90;;;;;;5090064;28;20215;-83
2023/02/13 06:09:04;;;;;;;74.55;33.40;;;8.50;99.90;;;;;;5087908;28;20226;-83
2023/02/13 06:11:31;;;;;;;69.53;30.30;;;8.50;99.90;;;;;;5080606;28;20204;-86
2023/02/13 06:13:58;;;;;;;67.80;32.45;;;8.50;99.90;;;;;;5078689;28;20256;-84
2023/02/13 06:16:25;;;;;;;60.97;30.10;;;8.40;99.90;;;;;;5082101;28;20221;-84
2023/02/13 06:18:52;;;;;;;61.83;31.75;;;8.60;99.90;;;;;;5092010;28;20237;-84
2023/02/13 06:21:20;;;;;;;68.20;30.40;;;8.50;99.90;;;;;;5087166;28;20237;-84
2023/02/13 06:23:47;;;;;;;64.07;29.02;;;8.60;99.90;;;;;;5082175;28;20257;-83
2023/02/13 06:26:14;;;;;;;56.28;26.77;;;8.50;99.90;;;;;;5084935;28;20242;-83
2023/02/13 06:28:45;;;;;;;60.85;33.85;;;8.50;99.90;;;;;;5080654;28;20199;-86
2023/02/13 06:31:12;;;;;;;68.53;31.30;;;8.50;99.90;;;;;;5089204;28;20237;-83
2023/02/13 06:33:38;;;;;;;73.22;36.28;;;8.60;99.90;;;;;;5078642;28;20748;-82
2023/02/13 06:36:06;;;;;;;58.92;29.70;;;8.60;99.90;;;;;;5076918;28;20238;-84
2023/02/13 06:38:34;;;;;;;61.38;32.17;;;8.60;99.90;;;;;;5084175;28;20259;-82
2023/02/13 06:41:01;;;;;;;61.55;28.52;;;8.60;99.90;;;;;;5062032;28;20299;-83
2023/02/13 06:43:28;;;;;;;58.05;29.42;;;8.70;99.90;;;;;;5074820;28;20205;-85
2023/02/13 06:45:55;;;;;;;54.05;31.33;;;8.60;99.90;;;;;;5076285;28;20218;-84
2023/02/13 06:48:22;;;;;;;62.42;28.90;;;8.60;99.90;;;;;;5079553;28;20195;-82
2023/02/13 06:50:50;;;;;;;48.00;27.27;;;8.70;99.90;;;;;;5067672;28;20234;-84
2023/02/13 06:53:17;;;;;;;54.70;26.48;;;8.70;99.90;;;;;;5085779;28;20214;-83
2023/02/13 06:55:46;;;;;;;47.95;27.40;;;8.70;99.90;;;;;;5071296;28;20215;-85
2023/02/13 07:04:24;;;;;;;52.97;26.85;;;8.70;99.90;;;;;;5081926;28;20245;-84
2023/02/13 07:06:54;;;;;;;55.03;28.73;;;8.80;99.90;;;;;;5074257;28;20227;-85
2023/02/13 07:09:25;;;;;;;48.55;25.95;;;8.80;99.90;;;;;;5091123;28;20739;-87
2023/02/13 07:11:53;;;;;;;64.88;28.48;;;8.80;99.90;;;;;;5060679;28;20286;-67
2023/02/13 07:14:20;;;;;;;60.28;26.08;;;8.80;99.90;;;;;;5059698;28;20195;-70
2023/02/13 07:16:47;;;;;;;55.50;28.17;;;8.80;99.90;;;;;;5058473;28;20219;-70
2023/02/13 07:19:13;;;;;;;53.83;27.15;;;8.80;99.90;;;;;;5056413;28;20295;-71
2023/02/13 07:21:40;;;;;;;44.67;26.20;;;8.90;99.90;;;;;;5061336;28;20282;-69
2023/02/13 07:24:07;;;;;;;50.42;27.80;;;9.00;99.90;;;;;;5059674;28;20222;-72
2023/02/13 07:26:34;;;;;;;58.22;31.00;;;9.00;99.90;;;;;;5066984;28;20227;-65
2023/02/13 07:29:04;;;;;;;51.45;26.75;;;9.00;99.90;;;;;;5063821;28;20210;-63
2023/02/13 07:31:32;;;;;;;50.85;24.92;;;9.00;99.90;;;;;;5057457;28;20199;-65
2023/02/13 07:33:59;;;;;;;49.03;27.20;;;9.00;99.90;;;;;;5054550;28;20196;-66
2023/02/13 07:36:26;;;;;;;48.85;25.80;;;9.00;99.90;;;;;;5056433;28;20215;-64
2023/02/13 07:38:53;;;;;;;45.00;26.15;;;9.00;99.90;;;;;;5056375;28;20203;-65
2023/02/13 07:41:20;;;;;;;52.92;28.10;;;9.00;99.90;;;;;;5061642;28;20207;-65
2023/02/13 07:43:47;;;;;;;49.33;27.67;;;9.00;99.90;;;;;;5060439;28;20212;-64
2023/02/13 07:46:15;;;;;;;54.35;28.30;;;9.10;99.90;;;;;;5061086;28;20242;-65
2023/02/13 07:48:42;;;;;;;50.42;28.35;;;9.10;99.90;;;;;;5064010;28;20205;-66
2023/02/13 07:51:09;;;;;;;57.30;27.83;;;9.10;99.90;;;;;;5064982;28;20206;-65
2023/02/13 07:53:36;;;;;;;47.92;29.20;;;9.10;99.90;;;;;;5064893;28;20211;-64
2023/02/13 07:56:06;;;;;;;50.90;28.02;;;9.10;99.90;;;;;;5062063;28;20219;-63
2023/02/13 07:58:33;;;;;;;52.33;27.65;;;9.10;99.90;;;;;;5066076;28;20195;-64
2023/02/13 08:01:06;;;;;;;44.42;27.60;;;9.20;99.90;;;;;;5060258;28;20196;-64
2023/02/13 08:03:34;;;;;;;51.58;30.48;;;9.30;99.90;;;;;;5071207;28;20665;-65
2023/02/13 08:06:01;;;;;;;59.80;31.23;;;9.30;99.90;;;;;;5065579;28;20227;-64
2023/02/13 08:08:28;;;;;;;51.38;30.65;;;9.10;99.90;;;;;;5068543;28;20199;-65
2023/02/13 08:13:40;;;;;;;55.85;31.05;;;9.10;99.90;;;;;;5063244;28;20203;-64
2023/02/13 08:16:07;;;;;;;54.55;29.45;;;9.10;99.90;;;;;;5072171;28;20221;-63
2023/02/13 08:18:35;;;;;;;55.45;28.23;;;9.10;99.90;;;;;;5066683;28;20208;-65
2023/02/13 08:21:02;;;;;;;56.47;29.40;;;9.10;99.90;;;;;;5061894;28;20335;-62
2023/02/13 08:23:29;;;;;;;51.25;29.75;;;9.20;99.90;;;;;;5059496;28;20344;-63
2023/02/13 08:25:59;;;;;;;51.47;29.98;;;9.30;99.90;;;;;;5057313;28;20224;-64
2023/02/13 08:28:26;;;;;;;45.75;25.10;;;9.40;99.90;;;;;;5058768;28;20207;-64
2023/02/13 08:30:53;;;;;;;51.53;28.10;;;9.50;99.90;;;;;;5058363;28;20577;-64
2023/02/13 09:47:37;;;;;;;56.50;33.20;;;10.20;99.90;;;;;;5089031;22;20297;-74
2023/02/13 09:50:10;;;;;;;49.05;30.73;;;10.40;99.90;;;;;;5068947;28;20200;-75
2023/02/13 09:52:38;;;;;;;47.90;30.70;;;10.70;99.90;;;;;;5069138;28;20693;-72
2023/02/13 09:55:15;;;;;;;43.75;26.55;;;10.90;99.90;;;;;;5073566;28;20233;-74
2023/02/13 09:57:47;;;;;;;42.53;23.70;;;11.10;99.90;;;;;;5070597;28;20283;-74
2023/02/13 10:00:19;;;;;;;35.45;24.50;;;11.20;99.90;;;;;;5067814;28;20208;-72
2023/02/13 10:03:01;;;;;;;42.78;24.70;;;11.30;99.90;;;;;;5073315;28;20197;-74
2023/02/13 10:05:46;;;;;;;37.03;24.58;;;11.30;99.90;;;;;;5082083;28;20584;-74
2023/02/13 10:08:23;;;;;;;36.47;22.30;;;11.40;99.90;;;;;;5075577;28;20209;-74
2023/02/13 10:10:53;;;;;;;37.05;23.92;;;11.40;99.90;;;;;;5069779;28;20201;-74
2023/02/13 10:13:45;;;;;;;35.75;23.25;;;11.50;99.90;;;;;;5062376;28;20252;-73
2023/02/13 10:16:16;;;;;;;38.38;25.00;;;11.40;99.90;;;;;;5066765;28;20248;-74
2023/02/13 10:18:49;;;;;;;52.63;27.23;;;11.40;99.90;;;;;;5058414;28;20198;-74
2023/02/13 10:21:22;;;;;;;38.38;24.27;;;11.40;99.90;;;;;;5066670;28;20644;-74
2023/02/13 10:23:54;;;;;;;62.20;29.67;;;11.40;99.90;;;;;;5057925;28;20208;-73
2023/02/13 10:26:25;;;;;;;59.70;30.23;;;11.40;99.90;;;;;;5063491;28;20292;-74
2023/02/13 10:31:48;;;;;;;52.60;26.50;;;11.40;99.90;;;;;;5069958;28;20312;-73
2023/02/13 10:34:17;;;;;;;45.85;27.58;;;11.40;99.90;;;;;;5065834;28;20285;-74
2023/02/13 10:36:47;;;;;;;43.33;27.52;;;11.40;99.90;;;;;;5062306;28;20274;-74
2023/02/13 10:39:24;;;;;;;61.97;27.70;;;11.50;99.90;;;;;;5066227;28;20273;-75
2023/02/13 10:41:56;;;;;;;60.88;30.23;;;11.40;99.90;;;;;;5070843;28;20698;-75
2023/02/13 10:44:52;;;;;;;69.70;35.15;;;11.40;99.90;;;;;;5059706;28;20245;-74
2023/02/13 10:47:58;;;;;;;94.70;33.47;;;11.40;99.90;;;;;;5070804;28;20229;-74
2023/02/13 10:50:40;;;;;;;54.08;29.20;;;11.40;99.90;;;;;;5070441;28;20361;-74
2023/02/13 10:53:16;;;;;;;49.13;26.75;;;11.30;99.90;;;;;;5070718;28;20301;-74
2023/02/13 10:56:17;;;;;;;41.45;26.00;;;11.30;99.90;;;;;;5063349;28;20320;-74
2023/02/13 10:59:05;;;;;;;43.08;26.08;;;11.40;99.90;;;;;;5067492;28;20239;-73
2023/02/13 11:01:37;;;;;;;39.13;22.92;;;11.40;99.90;;;;;;5064648;28;20680;-75
2023/02/13 11:04:10;;;;;;;50.22;25.67;;;11.50;99.90;;;;;;5061072;28;20292;-74
2023/02/13 11:06:43;;;;;;;47.20;27.75;;;11.40;99.90;;;;;;5072072;28;20242;-75
2023/02/13 11:09:12;;;;;;;44.92;25.50;;;11.30;99.90;;;;;;5072708;28;20197;-74
2023/02/13 11:11:41;;;;;;;40.22;22.58;;;11.40;99.90;;;;;;5069203;28;20200;-75
2023/02/13 11:14:11;;;;;;;37.80;22.05;;;11.40;99.90;;;;;;5062744;28;20197;-75
2023/02/13 11:16:40;;;;;;;34.58;21.75;;;11.40;99.90;;;;;;5071759;28;20227;-75
2023/02/13 11:19:19;;;;;;;34.42;21.95;;;11.50;99.90;;;;;;5071478;28;20204;-74
2023/02/13 11:21:53;;;;;;;34.08;23.50;;;11.40;99.90;;;;;;5069508;28;20249;-76
2023/02/13 11:24:22;;;;;;;32.60;22.65;;;11.40;99.90;;;;;;5067953;28;20201;-74
2023/02/13 11:26:53;;;;;;;43.30;23.00;;;11.70;99.90;;;;;;5059518;28;20314;-75
2023/02/13 11:29:25;;;;;;;34.63;20.40;;;11.70;99.90;;;;;;5057133;28;20205;-75
2023/02/13 11:32:04;;;;;;;39.28;23.88;;;11.70;99.90;;;;;;5059645;28;20281;-75
2023/02/13 11:34:34;;;;;;;31.23;21.15;;;11.80;99.90;;;;;;5057622;28;20289;-75
2023/02/13 11:37:32;;;;;;;34.53;22.35;;;11.90;99.90;;;;;;5060935;28;20217;-74
2023/02/13 11:40:09;;;;;;;34.03;22.58;;;11.90;99.90;;;;;;4977725;28;20204;-75
2023/02/13 11:42:36;;;;;;;30.98;21.85;;;11.80;99.90;;;;;;5043831;28;20210;-74
2023/02/13 11:45:06;;;;;;;37.05;25.65;;;11.70;99.90;;;;;;5059740;28;20307;-74
2023/02/13 11:47:36;;;;;;;38.50;23.35;;;11.80;99.90;;;;;;5059781;28;20291;-74
2023/02/13 11:50:05;;;;;;;36.67;25.65;;;11.70;99.90;;;;;;5061947;28;20256;-73
2023/02/13 11:52:36;;;;;;;33.63;21.13;;;11.70;99.90;;;;;;5071909;28;20201;-75
2023/02/13 11:55:38;;;;;;;32.30;23.23;;;11.70;99.90;;;;;;5073553;28;20190;-75
2023/02/13 11:58:54;;;;;;;33.35;22.00;;;11.70;99.90;;;;;;5066735;28;20201;-75
2023/02/13 12:01:28;;;;;;;34.95;23.20;;;11.80;99.90;;;;;;5065537;28;20210;-73
2023/02/13 12:04:03;;;;;;;43.10;25.55;;;11.70;99.90;;;;;;5066786;28;20252;-75
2023/02/13 12:06:38;;;;;;;35.63;21.60;;;11.70;99.90;;;;;;5070070;28;20238;-74
2023/02/13 12:09:14;;;;;;;36.78;21.20;;;11.50;99.90;;;;;;5066520;28;20205;-74
2023/02/13 12:11:45;;;;;;;39.58;22.52;;;11.50;99.90;;;;;;5060114;28;20252;-74
2023/02/13 12:14:18;;;;;;;35.00;23.50;;;11.50;99.90;;;;;;5070156;28;20622;-74
2023/02/13 12:16:49;;;;;;;38.40;24.17;;;11.30;99.90;;;;;;5065884;28;20229;-75
2023/02/13 12:19:22;;;;;;;35.22;22.02;;;11.20;99.90;;;;;;5065986;28;20204;-75
2023/02/13 12:22:00;;;;;;;39.83;23.63;;;11.10;99.90;;;;;;5058862;28;20255;-75
2023/02/13 12:24:59;;;;;;;38.33;21.63;;;11.20;99.90;;;;;;5062450;28;20254;-77
2023/02/13 12:27:41;;;;;;;37.70;22.65;;;11.30;99.90;;;;;;5060075;28;20283;-76
2023/02/13 12:30:40;;;;;;;29.85;18.83;;;11.30;99.90;;;;;;5056549;28;20291;-75
2023/02/13 12:33:20;;;;;;;33.40;20.63;;;11.40;99.90;;;;;;5047028;28;20234;-74
2023/02/13 12:35:56;;;;;;;33.47;19.42;;;11.40;99.90;;;;;;5068764;28;20242;-73
2023/02/13 12:38:37;;;;;;;26.13;18.95;;;11.50;99.90;;;;;;5070619;28;20228;-74
2023/02/13 12:41:16;;;;;;;30.85;18.90;;;11.40;99.90;;;;;;5071644;28;20209;-76
2023/02/13 12:44:16;;;;;;;29.17;20.33;;;11.50;99.90;;;;;;5070964;28;20267;-75
2023/02/13 12:46:53;;;;;;;33.72;20.40;;;11.40;99.90;;;;;;5069643;28;20590;-74
2023/02/13 12:49:48;;;;;;;33.78;22.05;;;11.50;99.90;;;;;;5059222;28;20198;-74
2023/02/13 12:52:36;;;;;;;31.83;19.15;;;11.40;99.90;;;;;;5070974;28;20226;-75
2023/02/13 12:55:26;;;;;;;31.35;20.92;;;11.50;99.90;;;;;;5065248;28;20213;-77
2023/02/13 12:58:12;;;;;;;29.10;18.52;;;11.40;99.90;;;;;;5067129;28;20234;-74
2023/02/13 13:00:52;;;;;;;25.48;18.70;;;11.40;99.90;;;;;;5063280;28;20264;-76
2023/02/13 13:03:42;;;;;;;29.13;19.23;;;11.40;99.90;;;;;;5069448;28;20333;-75
2023/02/13 13:06:33;;;;;;;31.20;20.77;;;11.30;99.90;;;;;;5060189;28;20255;-75
2023/02/13 13:09:15;;;;;;;28.90;18.63;;;11.00;99.90;;;;;;5067685;28;20213;-74
2023/02/13 13:12:05;;;;;;;27.63;18.83;;;10.90;99.90;;;;;;5065619;28;20199;-75
2023/02/13 13:14:43;;;;;;;37.60;20.08;;;10.90;99.90;;;;;;5062070;28;20200;-74
2023/02/13 13:17:22;;;;;;;28.67;19.10;;;10.80;99.90;;;;;;5061093;28;20637;-75
2023/02/13 13:19:58;;;;;;;28.50;20.00;;;10.90;99.90;;;;;;5064777;28;20243;-74
2023/02/13 13:22:32;;;;;;;34.78;19.60;;;10.70;99.90;;;;;;5067987;28;20548;-74
2023/02/13 13:25:10;;;;;;;27.60;18.75;;;10.60;99.90;;;;;;5056065;28;20204;-75
2023/02/13 13:27:43;;;;;;;28.25;19.63;;;10.60;99.90;;;;;;5060047;28;20651;-74
2023/02/13 13:30:19;;;;;;;29.05;20.17;;;10.60;99.90;;;;;;5055692;28;20210;-75
2023/02/13 13:32:50;;;;;;;33.20;22.17;;;10.60;99.90;;;;;;5057129;28;20192;-74
2023/02/13 13:35:20;;;;;;;32.30;21.92;;;10.60;99.90;;;;;;5056080;28;20721;-75
2023/02/13 13:38:01;;;;;;;31.63;19.77;;;10.70;99.90;;;;;;5063745;28;20285;-75
2023/02/13 13:40:39;;;;;;;30.20;20.30;;;10.50;99.90;;;;;;5065174;28;20287;-74
2023/02/13 13:43:18;;;;;;;34.45;20.13;;;10.50;99.90;;;;;;5054846;28;20292;-74
2023/02/13 13:45:52;;;;;;;33.90;22.60;;;10.40;99.90;;;;;;5056046;28;20226;-74
2023/02/13 13:48:43;;;;;;;36.53;22.92;;;10.40;99.90;;;;;;5065938;28;20207;-74
2023/02/13 13:51:14;;;;;;;36.78;22.17;;;10.50;99.90;;;;;;5060178;28;20201;-76
2023/02/13 13:54:34;;;;;;;29.65;19.35;;;10.40;99.90;;;;;;5065660;28;20304;-74
2023/02/13 13:57:10;;;;;;;32.47;21.73;;;10.50;99.90;;;;;;5068952;28;20217;-75
2023/02/13 14:00:16;;;;;;;35.47;22.40;;;10.60;99.90;;;;;;5066257;28;20207;-73
2023/02/13 14:02:47;;;;;;;36.10;23.25;;;10.60;99.90;;;;;;5060612;28;20210;-74
2023/02/13 14:05:22;;;;;;;29.38;18.98;;;10.40;99.90;;;;;;5073487;28;20258;-74
2023/02/13 14:07:51;;;;;;;32.60;21.88;;;10.40;99.90;;;;;;5067332;28;20198;-74
2023/02/13 14:10:55;;;;;;;36.80;22.95;;;10.50;99.90;;;;;;5074014;28;20231;-73
2023/02/13 14:13:38;;;;;;;34.03;22.17;;;10.50;99.90;;;;;;5062674;28;20198;-74
2023/02/13 14:16:09;;;;;;;31.80;20.02;;;10.60;99.90;;;;;;5061420;28;20309;-75
2023/02/13 14:18:38;;;;;;;28.02;20.73;;;10.60;99.90;;;;;;5058842;28;20295;-74
2023/02/13 14:21:06;;;;;;;32.28;21.88;;;10.70;99.90;;;;;;5061563;28;20208;-75
2023/02/13 14:23:38;;;;;;;35.55;20.58;;;10.80;99.90;;;;;;5070261;28;20291;-73
2023/02/13 14:26:19;;;;;;;33.67;21.73;;;10.80;99.90;;;;;;5066678;28;20225;-74
2023/02/13 14:28:58;;;;;;;36.17;24.70;;;10.70;99.90;;;;;;5061359;28;20673;-74
2023/02/13 14:31:28;;;;;;;37.45;24.33;;;10.60;99.90;;;;;;5059092;28;20251;-73
2023/02/13 14:33:56;;;;;;;36.50;22.42;;;10.60;99.90;;;;;;5058237;28;20232;-74
2023/02/13 14:36:31;;;;;;;32.55;20.15;;;10.70;99.90;;;;;;5059808;28;20729;-75
2023/02/13 14:39:00;;;;;;;33.33;21.40;;;10.70;99.90;;;;;;5068479;28;20279;-75
2023/02/13 14:41:44;;;;;;;32.90;20.23;;;10.70;99.90;;;;;;5069598;28;20634;-74
2023/02/13 14:44:21;;;;;;;33.97;22.92;;;10.80;99.90;;;;;;5064998;28;20653;-74
2023/02/13 14:46:50;;;;;;;35.38;22.95;;;10.70;99.90;;;;;;5055575;28;20287;-75
2023/02/13 14:49:21;;;;;;;35.80;21.67;;;10.70;99.90;;;;;;5061903;28;20287;-75
2023/02/13 14:51:51;;;;;;;40.58;22.80;;;10.80;99.90;;;;;;5071671;28;20283;-75
2023/02/13 14:54:27;;;;;;;38.63;23.08;;;10.80;99.90;;;;;;5068886;28;20222;-74
2023/02/13 14:57:00;;;;;;;42.28;28.52;;;10.90;99.90;;;;;;5071172;28;20639;-74
2023/02/13 14:59:34;;;;;;;37.67;22.23;;;10.70;99.90;;;;;;5070438;28;20234;-74
2023/02/13 15:02:07;;;;;;;36.15;22.95;;;10.70;99.90;;;;;;5047301;28;20211;-75
2023/02/13 15:04:41;;;;;;;32.30;22.13;;;10.50;99.90;;;;;;5063973;28;20251;-74
2023/02/13 15:07:15;;;;;;;30.50;21.35;;;10.60;99.90;;;;;;5062308;28;20648;-74